Airfield :
LOGIN :

Register | Disclaimer

   EN    FR    IT 

 










Legend :    VFR   Marginal VFR   IFR   Intensive IFR   Very Intensive IFR
Visi :
Ceiling :
>= 8 km
>= 3000ft
5 to 8 km
1000 to 3000 ft
1500m to 5 km
500 to 1000 ft
800 to 1500m
200 to 500 ft
< 800m
< 200 ft
Symbols :   Thunderstorms  Fog  Heavy snow  Heavy precipitations  Wind > 20 kt
SIGMETs :     Misc.  Thunderstorms  Icing  Turbulence  Mountain Waves  Volcanic Ashes






- Airport Elevation : 408 ft
- IATA code : SOB


LHSM - Sarmellek Balaton

CURRENT METAR :
  • 130415Z AUTO 18006KT 4100 BR OVC005 00/M00 Q0997

EXPIRED METARs :
  • 130345Z AUTO 18005KT 3600 BR OVC003 00/00 Q0998
  • 130315Z AUTO 19006KT 3600 BR BKN002 00/00 Q0998
  • 130245Z AUTO 14004KT 110V170 3300 BR VV002 00/00 Q0998
  • 130215Z AUTO 16003KT 1000 R16/1400U -RASN BR VV002 00/00 Q0999
  • 130145Z AUTO 17002KT 1100 R16/P1500 -RA BR VV002 00/00 Q0999

Expired Forecast.



MET'MAP, your aeronautical weather chart ! - Copyright ORBIFLY December 2007 - Disclaimer

ORBIFLY MET'MAP TEAM :

Programming & Development : Alexandra Zaïnal
Concept & original design : Baudouin d'Aumeries
Assistance for programming : Marc-Olivier Méhu
Technical & hardware support : Manuel Goepfert

Contact : metmap@orbifly.com




SOURCES & CREDITS :

   NOAA